sensor_id;sensor_type;location;lat;lon;timestamp;P1;durP1;ratioP1;P2;durP2;ratioP2
76788;SDS011;65740;52.464;13.446;2023-05-17T00:01:25;8.63;;;7.93;;
76788;SDS011;65740;52.464;13.446;2023-05-17T00:03:51;9.17;;;8.37;;
76788;SDS011;65740;52.464;13.446;2023-05-17T00:06:18;8.17;;;7.37;;
76788;SDS011;65740;52.464;13.446;2023-05-17T00:08:44;8.47;;;7.50;;
76788;SDS011;65740;52.464;13.446;2023-05-17T00:11:10;8.67;;;7.87;;
76788;SDS011;65740;52.464;13.446;2023-05-17T00:13:36;8.20;;;7.50;;
76788;SDS011;65740;52.464;13.446;2023-05-17T00:16:02;7.40;;;6.70;;
76788;SDS011;65740;52.464;13.446;2023-05-17T00:18:28;8.47;;;7.70;;
76788;SDS011;65740;52.464;13.446;2023-05-17T00:20:54;8.70;;;8.00;;
76788;SDS011;65740;52.464;13.446;2023-05-17T00:23:20;7.93;;;7.17;;
76788;SDS011;65740;52.464;13.446;2023-05-17T00:25:45;7.67;;;7.00;;
76788;SDS011;65740;52.464;13.446;2023-05-17T00:28:11;8.07;;;7.37;;
76788;SDS011;65740;52.464;13.446;2023-05-17T00:30:36;7.70;;;7.00;;
76788;SDS011;65740;52.464;13.446;2023-05-17T00:33:02;7.67;;;6.97;;
76788;SDS011;65740;52.464;13.446;2023-05-17T00:35:28;7.40;;;6.70;;
76788;SDS011;65740;52.464;13.446;2023-05-17T00:37:54;7.73;;;6.90;;
76788;SDS011;65740;52.464;13.446;2023-05-17T00:40:20;7.73;;;7.00;;
76788;SDS011;65740;52.464;13.446;2023-05-17T00:42:46;7.30;;;6.70;;
76788;SDS011;65740;52.464;13.446;2023-05-17T00:45:11;7.27;;;6.67;;
76788;SDS011;65740;52.464;13.446;2023-05-17T00:47:37;7.70;;;7.10;;
76788;SDS011;65740;52.464;13.446;2023-05-17T00:50:03;8.17;;;7.37;;
76788;SDS011;65740;52.464;13.446;2023-05-17T00:52:30;6.93;;;6.33;;
76788;SDS011;65740;52.464;13.446;2023-05-17T00:54:56;6.60;;;6.10;;
76788;SDS011;65740;52.464;13.446;2023-05-17T00:57:22;6.60;;;6.00;;
76788;SDS011;65740;52.464;13.446;2023-05-17T00:59:48;7.13;;;6.53;;
76788;SDS011;65740;52.464;13.446;2023-05-17T01:02:15;7.00;;;6.40;;
76788;SDS011;65740;52.464;13.446;2023-05-17T01:04:41;7.53;;;6.67;;
76788;SDS011;65740;52.464;13.446;2023-05-17T01:07:09;6.73;;;6.13;;
76788;SDS011;65740;52.464;13.446;2023-05-17T01:09:35;6.80;;;6.20;;
76788;SDS011;65740;52.464;13.446;2023-05-17T01:12:23;6.60;;;6.00;;
76788;SDS011;65740;52.464;13.446;2023-05-17T01:15:22;7.13;;;6.40;;
76788;SDS011;65740;52.464;13.446;2023-05-17T01:20:47;6.53;;;5.93;;
76788;SDS011;65740;52.464;13.446;2023-05-17T01:23:34;6.40;;;5.87;;
76788;SDS011;65740;52.464;13.446;2023-05-17T01:28:52;5.87;;;5.27;;
76788;SDS011;65740;52.464;13.446;2023-05-17T01:31:20;6.73;;;6.13;;
76788;SDS011;65740;52.464;13.446;2023-05-17T01:33:47;6.33;;;5.77;;
76788;SDS011;65740;52.464;13.446;2023-05-17T01:36:12;5.60;;;5.10;;
76788;SDS011;65740;52.464;13.446;2023-05-17T01:38:38;6.13;;;5.63;;
76788;SDS011;65740;52.464;13.446;2023-05-17T01:41:04;5.70;;;5.20;;
76788;SDS011;65740;52.464;13.446;2023-05-17T01:43:47;5.80;;;5.30;;
76788;SDS011;65740;52.464;13.446;2023-05-17T01:46:25;5.70;;;5.20;;
76788;SDS011;65740;52.464;13.446;2023-05-17T01:52:18;5.77;;;5.27;;
76788;SDS011;65740;52.464;13.446;2023-05-17T01:55:02;5.40;;;5.00;;
76788;SDS011;65740;52.464;13.446;2023-05-17T01:57:42;5.23;;;4.83;;
76788;SDS011;65740;52.464;13.446;2023-05-17T02:00:12;6.00;;;4.90;;
76788;SDS011;65740;52.464;13.446;2023-05-17T02:02:39;5.20;;;4.63;;
76788;SDS011;65740;52.464;13.446;2023-05-17T02:05:05;4.77;;;4.37;;
76788;SDS011;65740;52.464;13.446;2023-05-17T02:07:30;5.70;;;5.20;;
76788;SDS011;65740;52.464;13.446;2023-05-17T02:09:56;5.13;;;4.73;;
76788;SDS011;65740;52.464;13.446;2023-05-17T02:12:22;5.97;;;5.37;;
76788;SDS011;65740;52.464;13.446;2023-05-17T02:14:47;5.13;;;4.73;;
76788;SDS011;65740;52.464;13.446;2023-05-17T02:17:13;5.30;;;4.80;;
76788;SDS011;65740;52.464;13.446;2023-05-17T02:19:38;4.83;;;4.43;;
76788;SDS011;65740;52.464;13.446;2023-05-17T02:22:04;4.67;;;4.27;;
76788;SDS011;65740;52.464;13.446;2023-05-17T02:24:30;4.63;;;4.23;;
76788;SDS011;65740;52.464;13.446;2023-05-17T02:26:55;5.10;;;4.70;;
76788;SDS011;65740;52.464;13.446;2023-05-17T02:29:21;4.93;;;4.50;;
76788;SDS011;65740;52.464;13.446;2023-05-17T02:31:47;5.30;;;4.90;;
76788;SDS011;65740;52.464;13.446;2023-05-17T02:34:12;5.03;;;4.57;;
76788;SDS011;65740;52.464;13.446;2023-05-17T02:36:38;4.77;;;4.37;;
76788;SDS011;65740;52.464;13.446;2023-05-17T02:39:05;4.80;;;4.40;;
76788;SDS011;65740;52.464;13.446;2023-05-17T02:41:30;4.03;;;3.73;;
76788;SDS011;65740;52.464;13.446;2023-05-17T02:43:56;4.80;;;4.40;;
76788;SDS011;65740;52.464;13.446;2023-05-17T02:46:21;4.27;;;3.97;;
76788;SDS011;65740;52.464;13.446;2023-05-17T02:48:47;5.20;;;4.80;;
76788;SDS011;65740;52.464;13.446;2023-05-17T02:51:12;5.37;;;4.97;;
76788;SDS011;65740;52.464;13.446;2023-05-17T02:53:38;4.37;;;4.07;;
76788;SDS011;65740;52.464;13.446;2023-05-17T02:56:04;4.03;;;3.73;;
76788;SDS011;65740;52.464;13.446;2023-05-17T02:58:30;5.37;;;4.97;;
76788;SDS011;65740;52.464;13.446;2023-05-17T03:00:55;5.30;;;4.60;;
76788;SDS011;65740;52.464;13.446;2023-05-17T03:03:21;5.00;;;4.60;;
76788;SDS011;65740;52.464;13.446;2023-05-17T03:05:46;4.73;;;4.33;;
76788;SDS011;65740;52.464;13.446;2023-05-17T03:08:12;4.87;;;4.47;;
76788;SDS011;65740;52.464;13.446;2023-05-17T03:10:37;4.20;;;3.80;;
76788;SDS011;65740;52.464;13.446;2023-05-17T03:13:03;4.53;;;4.17;;
76788;SDS011;65740;52.464;13.446;2023-05-17T03:15:28;5.00;;;4.50;;
76788;SDS011;65740;52.464;13.446;2023-05-17T03:17:54;4.80;;;4.40;;
76788;SDS011;65740;52.464;13.446;2023-05-17T03:20:21;4.00;;;3.70;;
76788;SDS011;65740;52.464;13.446;2023-05-17T03:22:46;4.10;;;3.80;;
76788;SDS011;65740;52.464;13.446;2023-05-17T03:25:12;4.83;;;4.13;;
76788;SDS011;65740;52.464;13.446;2023-05-17T03:27:38;4.80;;;4.40;;
76788;SDS011;65740;52.464;13.446;2023-05-17T03:30:03;4.43;;;4.03;;
76788;SDS011;65740;52.464;13.446;2023-05-17T03:32:29;4.30;;;4.00;;
76788;SDS011;65740;52.464;13.446;2023-05-17T03:34:55;4.73;;;4.43;;
76788;SDS011;65740;52.464;13.446;2023-05-17T03:37:21;4.07;;;3.77;;
76788;SDS011;65740;52.464;13.446;2023-05-17T03:39:46;4.60;;;4.20;;
76788;SDS011;65740;52.464;13.446;2023-05-17T03:42:12;4.63;;;4.23;;
76788;SDS011;65740;52.464;13.446;2023-05-17T03:44:38;4.33;;;4.03;;
76788;SDS011;65740;52.464;13.446;2023-05-17T03:47:04;4.33;;;4.03;;
76788;SDS011;65740;52.464;13.446;2023-05-17T03:49:30;4.10;;;3.80;;
76788;SDS011;65740;52.464;13.446;2023-05-17T03:51:56;3.90;;;3.60;;
76788;SDS011;65740;52.464;13.446;2023-05-17T03:54:22;4.20;;;3.90;;
76788;SDS011;65740;52.464;13.446;2023-05-17T03:56:47;4.50;;;4.10;;
76788;SDS011;65740;52.464;13.446;2023-05-17T03:59:14;3.83;;;3.53;;
76788;SDS011;65740;52.464;13.446;2023-05-17T04:01:41;4.00;;;3.70;;
76788;SDS011;65740;52.464;13.446;2023-05-17T04:04:07;4.17;;;3.87;;
76788;SDS011;65740;52.464;13.446;2023-05-17T04:06:33;4.10;;;3.80;;
76788;SDS011;65740;52.464;13.446;2023-05-17T04:08:59;4.00;;;3.70;;
76788;SDS011;65740;52.464;13.446;2023-05-17T04:11:25;3.63;;;3.33;;
76788;SDS011;65740;52.464;13.446;2023-05-17T04:13:52;3.80;;;3.50;;
76788;SDS011;65740;52.464;13.446;2023-05-17T04:16:18;3.80;;;3.50;;
76788;SDS011;65740;52.464;13.446;2023-05-17T04:18:44;4.00;;;3.70;;
76788;SDS011;65740;52.464;13.446;2023-05-17T04:21:10;3.67;;;3.37;;
76788;SDS011;65740;52.464;13.446;2023-05-17T04:23:36;3.73;;;3.47;;
76788;SDS011;65740;52.464;13.446;2023-05-17T04:26:02;4.40;;;4.10;;
76788;SDS011;65740;52.464;13.446;2023-05-17T04:28:29;4.37;;;4.00;;
76788;SDS011;65740;52.464;13.446;2023-05-17T04:30:55;3.70;;;3.40;;
76788;SDS011;65740;52.464;13.446;2023-05-17T04:33:21;4.20;;;3.80;;
76788;SDS011;65740;52.464;13.446;2023-05-17T04:35:48;4.33;;;3.93;;
76788;SDS011;65740;52.464;13.446;2023-05-17T04:38:14;3.60;;;3.30;;
76788;SDS011;65740;52.464;13.446;2023-05-17T04:40:40;4.57;;;4.27;;
76788;SDS011;65740;52.464;13.446;2023-05-17T04:43:09;4.50;;;4.20;;
76788;SDS011;65740;52.464;13.446;2023-05-17T04:45:34;4.07;;;3.77;;
76788;SDS011;65740;52.464;13.446;2023-05-17T04:48:01;3.87;;;3.57;;
76788;SDS011;65740;52.464;13.446;2023-05-17T04:50:27;4.00;;;3.70;;
76788;SDS011;65740;52.464;13.446;2023-05-17T04:52:53;4.40;;;4.10;;
76788;SDS011;65740;52.464;13.446;2023-05-17T04:55:18;4.13;;;3.83;;
76788;SDS011;65740;52.464;13.446;2023-05-17T04:57:44;3.87;;;3.57;;
76788;SDS011;65740;52.464;13.446;2023-05-17T05:00:10;3.63;;;3.33;;
76788;SDS011;65740;52.464;13.446;2023-05-17T05:02:36;3.97;;;3.67;;
76788;SDS011;65740;52.464;13.446;2023-05-17T05:05:02;3.80;;;3.50;;
76788;SDS011;65740;52.464;13.446;2023-05-17T05:07:29;3.77;;;3.47;;
76788;SDS011;65740;52.464;13.446;2023-05-17T05:09:55;3.83;;;3.57;;
76788;SDS011;65740;52.464;13.446;2023-05-17T05:12:20;4.10;;;3.80;;
76788;SDS011;65740;52.464;13.446;2023-05-17T05:14:46;3.90;;;3.60;;
76788;SDS011;65740;52.464;13.446;2023-05-17T05:17:12;4.40;;;4.00;;
76788;SDS011;65740;52.464;13.446;2023-05-17T05:19:37;3.73;;;3.53;;
76788;SDS011;65740;52.464;13.446;2023-05-17T05:22:03;3.80;;;3.50;;
76788;SDS011;65740;52.464;13.446;2023-05-17T05:24:29;3.93;;;3.60;;
76788;SDS011;65740;52.464;13.446;2023-05-17T05:26:54;4.10;;;3.80;;
76788;SDS011;65740;52.464;13.446;2023-05-17T05:29:20;3.73;;;3.53;;
76788;SDS011;65740;52.464;13.446;2023-05-17T05:31:45;3.67;;;3.47;;
76788;SDS011;65740;52.464;13.446;2023-05-17T05:34:11;3.60;;;3.30;;
76788;SDS011;65740;52.464;13.446;2023-05-17T05:36:36;3.50;;;3.20;;
76788;SDS011;65740;52.464;13.446;2023-05-17T05:39:02;3.50;;;3.30;;
76788;SDS011;65740;52.464;13.446;2023-05-17T05:41:28;3.27;;;3.07;;
76788;SDS011;65740;52.464;13.446;2023-05-17T05:43:53;4.10;;;3.70;;
76788;SDS011;65740;52.464;13.446;2023-05-17T05:46:19;3.17;;;2.90;;
76788;SDS011;65740;52.464;13.446;2023-05-17T05:48:45;3.40;;;3.17;;
76788;SDS011;65740;52.464;13.446;2023-05-17T05:51:10;3.57;;;3.27;;
76788;SDS011;65740;52.464;13.446;2023-05-17T05:53:36;3.57;;;3.37;;
76788;SDS011;65740;52.464;13.446;2023-05-17T05:56:02;3.60;;;3.30;;
76788;SDS011;65740;52.464;13.446;2023-05-17T05:58:28;3.90;;;3.60;;
76788;SDS011;65740;52.464;13.446;2023-05-17T06:00:55;3.60;;;3.30;;
76788;SDS011;65740;52.464;13.446;2023-05-17T06:03:24;3.43;;;3.13;;
76788;SDS011;65740;52.464;13.446;2023-05-17T06:05:50;3.50;;;3.30;;
76788;SDS011;65740;52.464;13.446;2023-05-17T06:08:15;3.70;;;3.40;;
76788;SDS011;65740;52.464;13.446;2023-05-17T06:10:41;3.33;;;3.07;;
76788;SDS011;65740;52.464;13.446;2023-05-17T06:13:06;3.90;;;3.50;;
76788;SDS011;65740;52.464;13.446;2023-05-17T06:15:32;3.47;;;3.27;;
76788;SDS011;65740;52.464;13.446;2023-05-17T06:17:58;3.90;;;3.20;;
76788;SDS011;65740;52.464;13.446;2023-05-17T06:20:23;3.60;;;3.30;;
76788;SDS011;65740;52.464;13.446;2023-05-17T06:22:49;3.70;;;3.50;;
76788;SDS011;65740;52.464;13.446;2023-05-17T06:25:15;6.30;;;3.63;;
76788;SDS011;65740;52.464;13.446;2023-05-17T06:27:40;3.53;;;3.22;;
76788;SDS011;65740;52.464;13.446;2023-05-17T06:30:06;4.07;;;3.45;;
76788;SDS011;65740;52.464;13.446;2023-05-17T06:32:32;4.27;;;3.60;;
76788;SDS011;65740;52.464;13.446;2023-05-17T06:34:58;3.80;;;3.50;;
76788;SDS011;65740;52.464;13.446;2023-05-17T06:37:24;5.10;;;3.50;;
76788;SDS011;65740;52.464;13.446;2023-05-17T06:39:50;3.90;;;3.50;;
76788;SDS011;65740;52.464;13.446;2023-05-17T06:42:16;3.17;;;2.87;;
76788;SDS011;65740;52.464;13.446;2023-05-17T06:44:42;3.63;;;3.33;;
76788;SDS011;65740;52.464;13.446;2023-05-17T06:47:08;3.13;;;2.83;;
76788;SDS011;65740;52.464;13.446;2023-05-17T06:49:33;3.23;;;3.00;;
76788;SDS011;65740;52.464;13.446;2023-05-17T06:51:59;3.63;;;3.33;;
76788;SDS011;65740;52.464;13.446;2023-05-17T06:54:30;3.90;;;3.60;;
76788;SDS011;65740;52.464;13.446;2023-05-17T06:57:01;4.03;;;3.50;;
76788;SDS011;65740;52.464;13.446;2023-05-17T06:59:28;3.20;;;2.93;;
76788;SDS011;65740;52.464;13.446;2023-05-17T07:01:53;3.50;;;3.20;;
76788;SDS011;65740;52.464;13.446;2023-05-17T07:04:19;5.40;;;3.40;;
76788;SDS011;65740;52.464;13.446;2023-05-17T07:06:45;4.40;;;3.30;;
76788;SDS011;65740;52.464;13.446;2023-05-17T07:09:11;8.90;;;4.10;;
76788;SDS011;65740;52.464;13.446;2023-05-17T07:11:37;9.65;;;4.10;;
76788;SDS011;65740;52.464;13.446;2023-05-17T07:14:03;7.13;;;3.80;;
76788;SDS011;65740;52.464;13.446;2023-05-17T07:16:28;5.37;;;3.60;;
76788;SDS011;65740;52.464;13.446;2023-05-17T07:18:54;8.00;;;4.10;;
76788;SDS011;65740;52.464;13.446;2023-05-17T07:21:21;6.03;;;3.58;;
76788;SDS011;65740;52.464;13.446;2023-05-17T07:23:48;9.52;;;3.70;;
76788;SDS011;65740;52.464;13.446;2023-05-17T07:26:14;8.70;;;3.90;;
76788;SDS011;65740;52.464;13.446;2023-05-17T07:28:43;8.10;;;3.55;;
76788;SDS011;65740;52.464;13.446;2023-05-17T07:31:08;5.93;;;3.40;;
76788;SDS011;65740;52.464;13.446;2023-05-17T07:33:35;5.90;;;3.60;;
76788;SDS011;65740;52.464;13.446;2023-05-17T07:36:01;7.05;;;3.90;;
76788;SDS011;65740;52.464;13.446;2023-05-17T07:38:27;5.57;;;3.47;;
76788;SDS011;65740;52.464;13.446;2023-05-17T07:40:53;8.23;;;3.60;;
76788;SDS011;65740;52.464;13.446;2023-05-17T07:43:19;8.00;;;3.37;;
76788;SDS011;65740;52.464;13.446;2023-05-17T07:45:44;4.73;;;3.27;;
76788;SDS011;65740;52.464;13.446;2023-05-17T07:48:11;6.17;;;3.50;;
76788;SDS011;65740;52.464;13.446;2023-05-17T07:50:36;6.40;;;3.50;;
76788;SDS011;65740;52.464;13.446;2023-05-17T07:53:02;5.60;;;3.43;;
76788;SDS011;65740;52.464;13.446;2023-05-17T07:55:28;6.73;;;3.90;;
76788;SDS011;65740;52.464;13.446;2023-05-17T07:57:53;4.07;;;3.30;;
76788;SDS011;65740;52.464;13.446;2023-05-17T08:00:19;5.80;;;3.53;;
76788;SDS011;65740;52.464;13.446;2023-05-17T08:02:46;7.60;;;3.63;;
76788;SDS011;65740;52.464;13.446;2023-05-17T08:05:12;9.40;;;3.87;;
76788;SDS011;65740;52.464;13.446;2023-05-17T08:07:38;7.73;;;4.40;;
76788;SDS011;65740;52.464;13.446;2023-05-17T08:10:04;6.17;;;3.30;;
76788;SDS011;65740;52.464;13.446;2023-05-17T08:12:30;5.80;;;2.93;;
76788;SDS011;65740;52.464;13.446;2023-05-17T08:14:56;4.13;;;3.53;;
76788;SDS011;65740;52.464;13.446;2023-05-17T08:17:22;7.90;;;3.40;;
76788;SDS011;65740;52.464;13.446;2023-05-17T08:19:48;5.93;;;3.20;;
76788;SDS011;65740;52.464;13.446;2023-05-17T08:22:15;5.30;;;3.00;;
76788;SDS011;65740;52.464;13.446;2023-05-17T08:24:41;4.53;;;3.20;;
76788;SDS011;65740;52.464;13.446;2023-05-17T08:27:09;3.73;;;3.30;;
76788;SDS011;65740;52.464;13.446;2023-05-17T08:29:35;6.28;;;3.72;;
76788;SDS011;65740;52.464;13.446;2023-05-17T08:32:01;8.43;;;4.27;;
76788;SDS011;65740;52.464;13.446;2023-05-17T08:34:27;6.07;;;3.60;;
76788;SDS011;65740;52.464;13.446;2023-05-17T08:36:53;6.57;;;3.60;;
76788;SDS011;65740;52.464;13.446;2023-05-17T08:39:19;6.00;;;3.50;;
76788;SDS011;65740;52.464;13.446;2023-05-17T08:41:46;4.30;;;3.10;;
76788;SDS011;65740;52.464;13.446;2023-05-17T08:44:13;7.10;;;3.20;;
76788;SDS011;65740;52.464;13.446;2023-05-17T08:46:43;5.17;;;3.10;;
76788;SDS011;65740;52.464;13.446;2023-05-17T08:49:16;9.70;;;3.30;;
76788;SDS011;65740;52.464;13.446;2023-05-17T08:51:48;6.53;;;3.00;;
76788;SDS011;65740;52.464;13.446;2023-05-17T08:54:14;3.87;;;3.20;;
76788;SDS011;65740;52.464;13.446;2023-05-17T08:56:41;5.88;;;3.53;;
76788;SDS011;65740;52.464;13.446;2023-05-17T08:59:07;4.03;;;3.43;;
76788;SDS011;65740;52.464;13.446;2023-05-17T09:01:34;6.97;;;3.80;;
76788;SDS011;65740;52.464;13.446;2023-05-17T09:04:02;8.30;;;4.00;;
76788;SDS011;65740;52.464;13.446;2023-05-17T09:06:30;6.82;;;3.20;;
76788;SDS011;65740;52.464;13.446;2023-05-17T09:08:57;3.97;;;3.17;;
76788;SDS011;65740;52.464;13.446;2023-05-17T09:11:26;6.97;;;3.60;;
76788;SDS011;65740;52.464;13.446;2023-05-17T09:13:57;3.23;;;2.90;;
76788;SDS011;65740;52.464;13.446;2023-05-17T09:16:24;9.27;;;3.80;;
76788;SDS011;65740;52.464;13.446;2023-05-17T09:18:55;8.63;;;3.20;;
76788;SDS011;65740;52.464;13.446;2023-05-17T09:21:23;5.57;;;3.10;;
76788;SDS011;65740;52.464;13.446;2023-05-17T09:23:50;8.57;;;3.77;;
76788;SDS011;65740;52.464;13.446;2023-05-17T09:26:16;6.60;;;3.20;;
76788;SDS011;65740;52.464;13.446;2023-05-17T09:28:44;6.60;;;3.73;;
76788;SDS011;65740;52.464;13.446;2023-05-17T09:31:13;10.57;;;3.40;;
76788;SDS011;65740;52.464;13.446;2023-05-17T09:33:44;8.25;;;3.95;;
76788;SDS011;65740;52.464;13.446;2023-05-17T09:36:20;8.35;;;3.50;;
76788;SDS011;65740;52.464;13.446;2023-05-17T09:38:56;11.25;;;4.20;;
76788;SDS011;65740;52.464;13.446;2023-05-17T09:41:29;8.10;;;3.70;;
76788;SDS011;65740;52.464;13.446;2023-05-17T09:43:59;5.50;;;3.20;;
76788;SDS011;65740;52.464;13.446;2023-05-17T09:46:26;9.27;;;4.20;;
76788;SDS011;65740;52.464;13.446;2023-05-17T09:48:57;10.20;;;3.60;;
76788;SDS011;65740;52.464;13.446;2023-05-17T09:51:31;5.83;;;3.87;;
76788;SDS011;65740;52.464;13.446;2023-05-17T09:53:57;7.50;;;3.07;;
76788;SDS011;65740;52.464;13.446;2023-05-17T09:56:26;4.13;;;3.20;;
76788;SDS011;65740;52.464;13.446;2023-05-17T09:58:53;6.63;;;3.30;;
76788;SDS011;65740;52.464;13.446;2023-05-17T10:01:21;6.82;;;3.70;;
76788;SDS011;65740;52.464;13.446;2023-05-17T10:03:50;10.77;;;3.80;;
76788;SDS011;65740;52.464;13.446;2023-05-17T10:06:16;6.53;;;3.30;;
76788;SDS011;65740;52.464;13.446;2023-05-17T10:08:49;8.07;;;3.17;;
76788;SDS011;65740;52.464;13.446;2023-05-17T10:11:17;9.68;;;3.75;;
76788;SDS011;65740;52.464;13.446;2023-05-17T10:13:48;8.57;;;3.65;;
76788;SDS011;65740;52.464;13.446;2023-05-17T10:16:22;7.03;;;3.38;;
76788;SDS011;65740;52.464;13.446;2023-05-17T10:18:50;8.07;;;3.63;;
76788;SDS011;65740;52.464;13.446;2023-05-17T10:21:16;6.10;;;3.58;;
76788;SDS011;65740;52.464;13.446;2023-05-17T10:23:43;6.30;;;3.70;;
76788;SDS011;65740;52.464;13.446;2023-05-17T10:26:11;9.30;;;3.90;;
76788;SDS011;65740;52.464;13.446;2023-05-17T10:28:38;8.30;;;3.47;;
76788;SDS011;65740;52.464;13.446;2023-05-17T10:31:03;6.73;;;3.70;;
76788;SDS011;65740;52.464;13.446;2023-05-17T10:33:30;6.82;;;3.22;;
76788;SDS011;65740;52.464;13.446;2023-05-17T10:35:57;7.80;;;3.75;;
76788;SDS011;65740;52.464;13.446;2023-05-17T10:38:24;8.13;;;3.80;;
76788;SDS011;65740;52.464;13.446;2023-05-17T10:40:51;6.75;;;3.70;;
76788;SDS011;65740;52.464;13.446;2023-05-17T10:43:18;8.30;;;3.70;;
76788;SDS011;65740;52.464;13.446;2023-05-17T10:45:45;7.35;;;3.58;;
76788;SDS011;65740;52.464;13.446;2023-05-17T10:48:13;6.50;;;3.40;;
76788;SDS011;65740;52.464;13.446;2023-05-17T10:50:40;8.98;;;4.20;;
76788;SDS011;65740;52.464;13.446;2023-05-17T10:53:10;7.38;;;3.60;;
76788;SDS011;65740;52.464;13.446;2023-05-17T10:55:37;8.70;;;4.88;;
76788;SDS011;65740;52.464;13.446;2023-05-17T10:58:11;7.65;;;5.05;;
76788;SDS011;65740;52.464;13.446;2023-05-17T11:00:43;12.50;;;7.15;;
76788;SDS011;65740;52.464;13.446;2023-05-17T11:03:15;24.43;;;11.37;;
76788;SDS011;65740;52.464;13.446;2023-05-17T11:05:42;32.08;;;15.57;;
76788;SDS011;65740;52.464;13.446;2023-05-17T11:08:16;32.42;;;17.17;;
76788;SDS011;65740;52.464;13.446;2023-05-17T11:13:35;40.47;;;16.10;;
76788;SDS011;65740;52.464;13.446;2023-05-17T11:16:09;34.75;;;16.40;;
76788;SDS011;65740;52.464;13.446;2023-05-17T11:18:49;39.15;;;17.50;;
76788;SDS011;65740;52.464;13.446;2023-05-17T11:21:17;34.07;;;15.70;;
76788;SDS011;65740;52.464;13.446;2023-05-17T11:23:44;36.97;;;17.70;;
76788;SDS011;65740;52.464;13.446;2023-05-17T11:26:11;24.07;;;14.43;;
76788;SDS011;65740;52.464;13.446;2023-05-17T11:29:03;37.47;;;16.33;;
76788;SDS011;65740;52.464;13.446;2023-05-17T11:31:34;28.23;;;13.77;;
76788;SDS011;65740;52.464;13.446;2023-05-17T11:34:04;27.40;;;13.13;;
76788;SDS011;65740;52.464;13.446;2023-05-17T11:36:30;28.67;;;14.03;;
76788;SDS011;65740;52.464;13.446;2023-05-17T11:39:09;31.20;;;14.03;;
76788;SDS011;65740;52.464;13.446;2023-05-17T11:41:36;28.93;;;13.63;;
76788;SDS011;65740;52.464;13.446;2023-05-17T11:44:06;31.47;;;12.93;;
76788;SDS011;65740;52.464;13.446;2023-05-17T11:46:33;29.03;;;14.40;;
76788;SDS011;65740;52.464;13.446;2023-05-17T11:49:01;24.83;;;11.60;;
76788;SDS011;65740;52.464;13.446;2023-05-17T11:51:31;28.70;;;12.30;;
76788;SDS011;65740;52.464;13.446;2023-05-17T11:53:57;24.10;;;10.83;;
76788;SDS011;65740;52.464;13.446;2023-05-17T11:56:23;27.33;;;10.30;;
76788;SDS011;65740;52.464;13.446;2023-05-17T11:58:50;24.07;;;10.70;;
76788;SDS011;65740;52.464;13.446;2023-05-17T12:01:17;29.40;;;12.00;;
76788;SDS011;65740;52.464;13.446;2023-05-17T12:03:42;27.17;;;11.07;;
76788;SDS011;65740;52.464;13.446;2023-05-17T12:06:09;23.33;;;10.20;;
76788;SDS011;65740;52.464;13.446;2023-05-17T12:08:41;20.53;;;8.97;;
76788;SDS011;65740;52.464;13.446;2023-05-17T12:11:13;18.70;;;9.43;;
76788;SDS011;65740;52.464;13.446;2023-05-17T12:13:43;17.93;;;9.77;;
76788;SDS011;65740;52.464;13.446;2023-05-17T12:16:13;18.47;;;9.07;;
76788;SDS011;65740;52.464;13.446;2023-05-17T12:18:48;16.53;;;8.07;;
76788;SDS011;65740;52.464;13.446;2023-05-17T12:21:15;19.17;;;8.17;;
76788;SDS011;65740;52.464;13.446;2023-05-17T12:23:43;18.47;;;8.67;;
76788;SDS011;65740;52.464;13.446;2023-05-17T12:26:13;18.10;;;8.37;;
76788;SDS011;65740;52.464;13.446;2023-05-17T12:28:51;20.30;;;8.30;;
76788;SDS011;65740;52.464;13.446;2023-05-17T12:31:42;16.03;;;7.63;;
76788;SDS011;65740;52.464;13.446;2023-05-17T12:34:09;14.50;;;7.90;;
76788;SDS011;65740;52.464;13.446;2023-05-17T12:36:40;14.50;;;7.47;;
76788;SDS011;65740;52.464;13.446;2023-05-17T12:39:08;14.93;;;7.73;;
76788;SDS011;65740;52.464;13.446;2023-05-17T12:41:36;19.33;;;8.70;;
76788;SDS011;65740;52.464;13.446;2023-05-17T12:44:02;16.40;;;7.80;;
76788;SDS011;65740;52.464;13.446;2023-05-17T12:46:29;15.63;;;6.50;;
76788;SDS011;65740;52.464;13.446;2023-05-17T12:49:00;15.57;;;6.60;;
76788;SDS011;65740;52.464;13.446;2023-05-17T12:51:38;11.10;;;6.13;;
76788;SDS011;65740;52.464;13.446;2023-05-17T12:54:06;15.00;;;6.97;;
76788;SDS011;65740;52.464;13.446;2023-05-17T12:56:31;14.17;;;6.90;;
76788;SDS011;65740;52.464;13.446;2023-05-17T13:01:46;10.37;;;6.17;;
76788;SDS011;65740;52.464;13.446;2023-05-17T13:04:17;9.10;;;5.40;;
76788;SDS011;65740;52.464;13.446;2023-05-17T13:09:23;11.53;;;7.00;;
76788;SDS011;65740;52.464;13.446;2023-05-17T13:11:51;9.60;;;5.57;;
76788;SDS011;65740;52.464;13.446;2023-05-17T13:14:34;8.37;;;5.90;;
76788;SDS011;65740;52.464;13.446;2023-05-17T13:17:03;9.60;;;6.10;;
76788;SDS011;65740;52.464;13.446;2023-05-17T13:19:31;12.03;;;5.67;;
76788;SDS011;65740;52.464;13.446;2023-05-17T13:21:59;10.00;;;5.80;;
76788;SDS011;65740;52.464;13.446;2023-05-17T13:24:25;7.07;;;5.30;;
76788;SDS011;65740;52.464;13.446;2023-05-17T13:26:52;11.07;;;5.73;;
76788;SDS011;65740;52.464;13.446;2023-05-17T13:29:18;10.20;;;5.37;;
76788;SDS011;65740;52.464;13.446;2023-05-17T13:31:44;11.60;;;5.73;;
76788;SDS011;65740;52.464;13.446;2023-05-17T13:34:11;10.03;;;5.33;;
76788;SDS011;65740;52.464;13.446;2023-05-17T13:36:38;8.03;;;4.90;;
76788;SDS011;65740;52.464;13.446;2023-05-17T13:39:04;8.60;;;5.30;;
76788;SDS011;65740;52.464;13.446;2023-05-17T13:41:30;9.80;;;5.07;;
76788;SDS011;65740;52.464;13.446;2023-05-17T13:43:55;6.30;;;4.50;;
76788;SDS011;65740;52.464;13.446;2023-05-17T13:46:22;7.33;;;5.23;;
76788;SDS011;65740;52.464;13.446;2023-05-17T13:48:48;8.67;;;4.77;;
76788;SDS011;65740;52.464;13.446;2023-05-17T13:51:13;12.77;;;5.73;;
76788;SDS011;65740;52.464;13.446;2023-05-17T13:53:39;6.70;;;5.03;;
76788;SDS011;65740;52.464;13.446;2023-05-17T13:56:05;7.43;;;4.50;;
76788;SDS011;65740;52.464;13.446;2023-05-17T13:58:31;8.53;;;4.30;;
76788;SDS011;65740;52.464;13.446;2023-05-17T14:00:57;6.37;;;4.63;;
76788;SDS011;65740;52.464;13.446;2023-05-17T14:03:23;12.43;;;4.53;;
76788;SDS011;65740;52.464;13.446;2023-05-17T14:05:49;9.00;;;5.10;;
76788;SDS011;65740;52.464;13.446;2023-05-17T14:08:16;7.40;;;4.57;;
76788;SDS011;65740;52.464;13.446;2023-05-17T14:10:43;8.60;;;4.93;;
76788;SDS011;65740;52.464;13.446;2023-05-17T14:13:09;14.60;;;5.97;;
76788;SDS011;65740;52.464;13.446;2023-05-17T14:15:36;9.57;;;4.40;;
76788;SDS011;65740;52.464;13.446;2023-05-17T14:18:04;14.77;;;5.70;;
76788;SDS011;65740;52.464;13.446;2023-05-17T14:20:30;11.70;;;4.80;;
76788;SDS011;65740;52.464;13.446;2023-05-17T14:22:56;10.87;;;4.57;;
76788;SDS011;65740;52.464;13.446;2023-05-17T14:25:22;9.77;;;4.50;;
76788;SDS011;65740;52.464;13.446;2023-05-17T14:27:48;9.47;;;5.00;;
76788;SDS011;65740;52.464;13.446;2023-05-17T14:30:14;12.73;;;5.53;;
76788;SDS011;65740;52.464;13.446;2023-05-17T14:32:40;13.97;;;5.20;;
76788;SDS011;65740;52.464;13.446;2023-05-17T14:35:06;11.30;;;4.40;;
76788;SDS011;65740;52.464;13.446;2023-05-17T14:37:33;8.57;;;4.50;;
76788;SDS011;65740;52.464;13.446;2023-05-17T14:39:59;12.33;;;4.90;;
76788;SDS011;65740;52.464;13.446;2023-05-17T14:42:25;8.63;;;4.53;;
76788;SDS011;65740;52.464;13.446;2023-05-17T14:44:51;11.90;;;4.10;;
76788;SDS011;65740;52.464;13.446;2023-05-17T14:47:17;7.90;;;4.43;;
76788;SDS011;65740;52.464;13.446;2023-05-17T14:49:45;7.40;;;4.60;;